createdAt,value
2022-09-11T00:01:28.115Z,15.46
2022-09-11T00:03:55.777Z,15.39
2022-09-11T00:06:30.579Z,15.36
2022-09-11T00:09:03.669Z,15.39
2022-09-11T00:11:40.362Z,15.37
2022-09-11T00:14:10.487Z,15.36
2022-09-11T00:16:42.688Z,15.36
2022-09-11T00:19:19.026Z,15.31
2022-09-11T00:21:47.190Z,15.39
2022-09-11T00:24:17.700Z,15.46
2022-09-11T00:26:45.036Z,15.45
2022-09-11T00:29:12.307Z,15.45
2022-09-11T00:31:40.279Z,15.29
2022-09-11T00:34:07.724Z,15.22
2022-09-11T00:36:35.493Z,15.22
2022-09-11T00:39:03.440Z,15.17
2022-09-11T00:41:36.955Z,15.05
2022-09-11T00:44:31.190Z,15.01
2022-09-11T00:47:00.816Z,15.04
2022-09-11T00:49:30.553Z,14.93
2022-09-11T00:52:07.438Z,14.78
2022-09-11T00:54:38.440Z,14.85
2022-09-11T00:57:08.539Z,14.89
2022-09-11T00:59:37.425Z,14.92
2022-09-11T01:02:05.716Z,14.84
2022-09-11T01:04:33.222Z,14.81
2022-09-11T01:07:01.530Z,14.69
2022-09-11T01:09:30.236Z,14.73
2022-09-11T01:12:09.358Z,14.71
2022-09-11T01:15:04.349Z,14.61
2022-09-11T01:18:06.439Z,14.58
2022-09-11T01:21:04.908Z,14.43
2022-09-11T01:23:36.557Z,14.42
2022-09-11T01:26:13.083Z,14.51
2022-09-11T01:28:45.081Z,14.26
2022-09-11T01:31:16.349Z,14.34
2022-09-11T01:33:52.585Z,14.37
2022-09-11T01:36:29.074Z,14.38
2022-09-11T01:39:02.169Z,14.25
2022-09-11T01:41:43.887Z,14.22
2022-09-11T01:44:24.653Z,14.64
2022-09-11T01:46:52.263Z,14.83
2022-09-11T01:49:22.388Z,14.54
2022-09-11T01:51:53.400Z,14.03
2022-09-11T01:54:23.018Z,13.94
2022-09-11T01:56:53.479Z,14.00
2022-09-11T01:59:25.244Z,14.04
2022-09-11T02:01:57.840Z,14.00
2022-09-11T02:04:31.130Z,13.93
2022-09-11T02:07:13.053Z,13.95
2022-09-11T02:09:47.964Z,14.08
2022-09-11T02:12:17.223Z,14.03
2022-09-11T02:14:48.804Z,14.13
2022-09-11T02:17:22.209Z,14.02
2022-09-11T02:19:55.132Z,14.05
2022-09-11T02:22:22.758Z,14.08
2022-09-11T02:24:50.170Z,14.03
2022-09-11T02:27:24.074Z,14.04
2022-09-11T02:29:52.336Z,13.85
2022-09-11T02:32:24.011Z,13.79
2022-09-11T02:34:53.627Z,13.89
2022-09-11T02:37:33.240Z,13.90
2022-09-11T02:40:10.062Z,13.84
2022-09-11T02:42:45.876Z,13.70
2022-09-11T02:45:42.118Z,13.66
2022-09-11T02:48:35.379Z,13.69
2022-09-11T02:51:08.666Z,13.64
2022-09-11T02:53:48.751Z,13.53
2022-09-11T02:56:19.454Z,13.54
2022-09-11T02:58:53.732Z,13.61
2022-09-11T03:01:22.356Z,13.65
2022-09-11T03:03:53.678Z,13.63
2022-09-11T03:06:23.836Z,13.61
2022-09-11T03:08:51.376Z,13.66
2022-09-11T03:11:19.044Z,13.70
2022-09-11T03:13:47.185Z,13.76
2022-09-11T03:16:14.706Z,13.60
2022-09-11T03:18:42.094Z,13.57
2022-09-11T03:21:09.636Z,13.77
2022-09-11T03:23:37.641Z,13.64
2022-09-11T03:26:05.713Z,13.70
2022-09-11T03:28:33.772Z,13.65
2022-09-11T03:31:06.725Z,13.73
2022-09-11T03:33:34.321Z,13.73
2022-09-11T03:36:01.904Z,13.66
2022-09-11T03:38:29.533Z,13.70
2022-09-11T03:40:57.409Z,13.69
2022-09-11T03:43:24.941Z,13.71
2022-09-11T03:45:55.738Z,13.73
2022-09-11T03:48:23.586Z,13.72
2022-09-11T03:50:51.129Z,13.77
2022-09-11T03:53:18.651Z,13.78
2022-09-11T03:55:47.000Z,13.71
2022-09-11T03:58:14.418Z,13.67
2022-09-11T04:00:43.789Z,13.69
2022-09-11T04:03:12.274Z,13.75
2022-09-11T04:05:40.028Z,13.86
2022-09-11T04:08:07.432Z,13.83
2022-09-11T04:10:35.286Z,13.67
2022-09-11T04:13:03.040Z,13.83
2022-09-11T04:15:32.672Z,13.77
2022-09-11T04:18:04.892Z,13.70
2022-09-11T04:20:33.719Z,13.66
2022-09-11T04:23:02.393Z,13.68
2022-09-11T04:25:31.004Z,13.83
2022-09-11T04:27:58.952Z,13.81
2022-09-11T04:30:26.956Z,13.80
2022-09-11T04:32:54.669Z,13.70
2022-09-11T04:35:23.261Z,13.61
2022-09-11T04:37:51.128Z,13.80
2022-09-11T04:40:20.734Z,13.76
2022-09-11T04:42:48.195Z,13.77
2022-09-11T04:45:19.597Z,13.81
2022-09-11T04:47:47.022Z,13.84
2022-09-11T04:50:15.750Z,13.92
2022-09-11T04:52:45.189Z,14.09
2022-09-11T04:55:12.521Z,14.10
2022-09-11T04:57:39.883Z,13.91
2022-09-11T05:00:08.335Z,13.86
2022-09-11T05:02:38.562Z,14.05
2022-09-11T05:05:06.629Z,13.99
2022-09-11T05:07:34.453Z,13.88
2022-09-11T05:10:02.405Z,13.89
2022-09-11T05:12:30.369Z,13.83
2022-09-11T05:15:00.267Z,14.18
2022-09-11T05:17:33.705Z,14.52
2022-09-11T05:20:01.578Z,14.72
2022-09-11T05:22:31.065Z,14.89
2022-09-11T05:24:59.742Z,14.18
2022-09-11T05:27:27.332Z,14.12
2022-09-11T05:29:55.376Z,14.46
2022-09-11T05:32:22.895Z,14.15
2022-09-11T05:34:50.799Z,14.07
2022-09-11T05:37:21.748Z,14.13
2022-09-11T05:39:49.335Z,14.23
2022-09-11T05:42:17.322Z,14.23
2022-09-11T05:44:47.842Z,14.29
2022-09-11T05:47:15.888Z,14.36
2022-09-11T05:49:43.642Z,14.45
2022-09-11T05:52:11.091Z,14.75
2022-09-11T05:54:38.559Z,14.64
2022-09-11T05:57:07.952Z,14.67
2022-09-11T05:59:35.606Z,14.64
2022-09-11T06:02:03.475Z,14.71
2022-09-11T06:04:31.878Z,14.74
2022-09-11T06:06:59.833Z,14.79
2022-09-11T06:09:27.707Z,14.80
2022-09-11T06:11:55.696Z,14.81
2022-09-11T06:14:23.036Z,14.91
2022-09-11T06:16:50.438Z,15.08
2022-09-11T06:19:18.118Z,15.21
2022-09-11T06:21:45.555Z,15.22
2022-09-11T06:24:17.577Z,15.14
2022-09-11T06:26:45.250Z,15.30
2022-09-11T06:29:13.168Z,15.40
2022-09-11T06:31:44.114Z,15.54
2022-09-11T06:34:14.748Z,15.50
2022-09-11T06:36:42.585Z,15.56
2022-09-11T06:39:10.589Z,15.72
2022-09-11T06:41:38.580Z,15.79
2022-09-11T06:44:06.830Z,15.84
2022-09-11T06:46:34.225Z,15.92
2022-09-11T06:49:01.755Z,15.96
2022-09-11T06:51:29.369Z,16.11
2022-09-11T06:53:58.752Z,16.16
2022-09-11T06:56:26.923Z,16.31
2022-09-11T06:58:56.101Z,16.46
2022-09-11T07:01:26.942Z,16.64
2022-09-11T07:03:55.408Z,16.61
2022-09-11T07:06:27.412Z,16.66
2022-09-11T07:09:00.789Z,16.65
2022-09-11T07:11:30.930Z,16.83
2022-09-11T07:14:00.187Z,17.02
2022-09-11T07:16:28.727Z,17.11
2022-09-11T07:18:56.129Z,17.07
2022-09-11T07:21:25.014Z,17.07
2022-09-11T07:23:54.730Z,17.04
2022-09-11T07:26:26.978Z,17.09
2022-09-11T07:28:56.047Z,17.09
2022-09-11T07:31:26.880Z,17.23
2022-09-11T07:33:54.257Z,17.42
2022-09-11T07:36:25.186Z,17.46
2022-09-11T07:38:53.698Z,17.57
2022-09-11T07:41:23.250Z,17.61
2022-09-11T07:43:53.533Z,17.70
2022-09-11T07:46:21.649Z,17.76
2022-09-11T07:48:49.930Z,17.71
2022-09-11T07:51:18.693Z,17.89
2022-09-11T07:53:48.665Z,18.13
2022-09-11T07:56:19.091Z,17.99
2022-09-11T07:58:47.840Z,18.10
2022-09-11T08:01:19.021Z,18.22
2022-09-11T08:03:47.265Z,18.14
2022-09-11T08:06:21.899Z,18.25
2022-09-11T08:08:55.751Z,18.22
2022-09-11T08:11:23.912Z,18.22
2022-09-11T08:13:52.955Z,18.10
2022-09-11T08:16:21.923Z,18.24
2022-09-11T08:18:49.604Z,18.33
2022-09-11T08:21:20.794Z,18.38
2022-09-11T08:23:48.298Z,18.92
2022-09-11T08:26:29.855Z,18.55
2022-09-11T08:28:58.639Z,18.60
2022-09-11T08:31:27.089Z,18.65
2022-09-11T08:33:55.894Z,19.10
2022-09-11T08:36:24.041Z,19.33
2022-09-11T08:38:51.765Z,19.42
2022-09-11T08:42:07.727Z,19.34
2022-09-11T08:44:48.034Z,19.13
2022-09-11T08:47:17.034Z,19.05
2022-09-11T08:49:53.658Z,19.59
2022-09-11T08:52:22.005Z,19.97
2022-09-11T08:54:51.899Z,19.76
2022-09-11T08:57:40.771Z,19.78
2022-09-11T09:00:52.994Z,19.37
2022-09-11T09:03:32.025Z,19.71
2022-09-11T09:06:21.882Z,19.44
2022-09-11T09:09:21.179Z,19.97
2022-09-11T09:12:01.341Z,20.59
2022-09-11T09:14:35.729Z,20.59
2022-09-11T09:17:17.845Z,20.62
2022-09-11T09:20:08.317Z,20.76
2022-09-11T09:22:57.269Z,21.02
2022-09-11T09:25:28.873Z,21.03
2022-09-11T09:28:20.430Z,21.12
2022-09-11T09:30:53.574Z,21.40
2022-09-11T09:33:34.631Z,20.78
2022-09-11T09:36:26.761Z,20.64
2022-09-11T09:38:55.199Z,20.07
2022-09-11T09:41:25.466Z,19.61
2022-09-11T09:44:01.965Z,19.41
2022-09-11T09:46:38.961Z,19.83
2022-09-11T09:49:07.226Z,19.69
2022-09-11T09:51:34.780Z,19.80
2022-09-11T09:54:02.671Z,19.92
2022-09-11T09:56:31.784Z,20.07
2022-09-11T09:59:41.426Z,20.35
2022-09-11T10:02:08.804Z,20.89
2022-09-11T10:04:36.505Z,20.68
2022-09-11T10:07:13.467Z,20.81
2022-09-11T10:09:46.543Z,20.94
2022-09-11T10:12:33.662Z,21.68
2022-09-11T10:15:02.688Z,21.20
2022-09-11T10:17:34.732Z,21.40
2022-09-11T10:20:17.375Z,21.04
2022-09-11T10:22:45.917Z,21.31
2022-09-11T10:25:15.759Z,22.20
2022-09-11T10:27:44.537Z,22.14
2022-09-11T10:30:45.349Z,22.45
2022-09-11T10:33:35.347Z,22.22
2022-09-11T10:36:05.218Z,22.77
2022-09-11T10:38:47.089Z,23.14
2022-09-11T10:41:14.587Z,23.37
2022-09-11T10:43:54.401Z,23.70
2022-09-11T10:46:27.137Z,23.25
2022-09-11T10:48:57.908Z,23.21
2022-09-11T10:51:25.752Z,22.60
2022-09-11T10:54:04.643Z,23.10
2022-09-11T10:56:38.375Z,22.95
2022-09-11T10:59:10.193Z,22.91
2022-09-11T11:01:38.230Z,22.79
2022-09-11T11:04:12.629Z,22.76
2022-09-11T11:07:04.462Z,21.92
2022-09-11T11:09:57.930Z,21.82
2022-09-11T11:12:44.214Z,21.61
2022-09-11T11:15:17.463Z,21.26
2022-09-11T11:17:49.092Z,20.54
2022-09-11T11:21:08.870Z,20.31
2022-09-11T11:23:49.135Z,20.17
2022-09-11T11:26:35.933Z,19.79
2022-09-11T11:29:06.012Z,20.16
2022-09-11T11:31:49.069Z,19.39
2022-09-11T11:34:20.610Z,19.40
2022-09-11T11:37:12.431Z,19.43
2022-09-11T11:39:49.198Z,19.44
2022-09-11T11:42:38.248Z,19.62
2022-09-11T11:45:22.911Z,20.38
2022-09-11T11:47:53.548Z,20.78
2022-09-11T11:50:33.383Z,20.03
2022-09-11T11:53:03.724Z,20.09
2022-09-11T11:56:04.300Z,20.24
2022-09-11T11:58:49.835Z,20.35
2022-09-11T12:01:21.202Z,20.33
2022-09-11T12:03:58.589Z,20.35
2022-09-11T12:06:25.928Z,20.26
2022-09-11T12:08:53.525Z,20.38
2022-09-11T12:11:30.132Z,20.98
2022-09-11T12:13:58.369Z,20.93
2022-09-11T12:16:27.745Z,20.95
2022-09-11T12:19:13.151Z,20.99
2022-09-11T12:22:05.164Z,20.93
2022-09-11T12:24:47.685Z,20.87
2022-09-11T12:27:30.345Z,20.44
2022-09-11T12:30:16.313Z,20.55
2022-09-11T12:32:48.371Z,21.00
2022-09-11T12:35:31.834Z,21.06
2022-09-11T12:38:06.906Z,21.17
2022-09-11T12:40:52.229Z,21.03
2022-09-11T12:43:35.235Z,20.82
2022-09-11T12:46:22.350Z,20.59
2022-09-11T12:49:21.533Z,20.57
2022-09-11T12:52:00.165Z,20.42
2022-09-11T12:54:37.789Z,20.14
2022-09-11T12:57:17.919Z,20.18
2022-09-11T12:59:52.092Z,19.57
2022-09-11T13:02:41.458Z,19.60
2022-09-11T13:05:37.069Z,19.69
2022-09-11T13:08:32.488Z,20.18
2022-09-11T13:11:37.545Z,20.64
2022-09-11T13:14:07.976Z,21.10
2022-09-11T13:16:35.515Z,21.02
2022-09-11T13:19:23.050Z,21.19
2022-09-11T13:21:52.845Z,20.96
2022-09-11T13:24:34.382Z,21.08
2022-09-11T13:27:05.636Z,21.15
2022-09-11T13:29:35.482Z,21.39
2022-09-11T13:32:13.498Z,21.32
2022-09-11T13:34:45.081Z,21.45
2022-09-11T13:37:19.633Z,21.68
2022-09-11T13:39:47.237Z,21.77
2022-09-11T13:42:16.811Z,21.28
2022-09-11T13:44:49.374Z,21.20
2022-09-11T13:47:20.526Z,20.77
2022-09-11T13:49:50.190Z,20.63
2022-09-11T13:52:19.098Z,20.96
2022-09-11T13:54:49.590Z,21.08
2022-09-11T13:57:21.573Z,20.83
2022-09-11T13:59:51.166Z,21.31
2022-09-11T14:02:21.524Z,21.37
2022-09-11T14:04:50.075Z,21.34
2022-09-11T14:07:25.155Z,21.83
2022-09-11T14:10:07.590Z,22.35
2022-09-11T14:13:07.185Z,22.23
2022-09-11T14:15:57.792Z,22.49
2022-09-11T14:18:40.390Z,21.91
2022-09-11T14:21:25.938Z,21.41
2022-09-11T14:23:57.357Z,21.73
2022-09-11T14:26:32.469Z,22.09
2022-09-11T14:29:22.263Z,22.62
2022-09-11T14:31:51.188Z,22.76
2022-09-11T14:34:26.730Z,22.52
2022-09-11T14:36:57.027Z,22.42
2022-09-11T14:39:39.758Z,22.14
2022-09-11T14:42:09.150Z,23.30
2022-09-11T14:44:37.350Z,22.66
2022-09-11T14:47:04.983Z,22.32
2022-09-11T14:49:32.713Z,22.41
2022-09-11T14:52:01.020Z,22.23
2022-09-11T14:54:29.619Z,22.31
2022-09-11T14:56:58.866Z,21.85
2022-09-11T14:59:26.782Z,21.35
2022-09-11T15:01:56.185Z,21.56
2022-09-11T15:04:23.996Z,21.02
2022-09-11T15:06:55.265Z,20.88
2022-09-11T15:09:25.672Z,20.88
2022-09-11T15:11:53.354Z,20.20
2022-09-11T15:14:51.982Z,20.43
2022-09-11T15:17:13.861Z,19.77
2022-09-11T15:19:41.358Z,19.65
2022-09-11T15:22:08.834Z,19.19
2022-09-11T15:24:36.585Z,19.30
2022-09-11T15:27:04.429Z,19.13
2022-09-11T15:29:31.881Z,18.93
2022-09-11T15:31:59.448Z,18.97
2022-09-11T15:34:27.141Z,18.94
2022-09-11T15:36:54.449Z,19.09
2022-09-11T15:39:22.157Z,19.25
2022-09-11T15:41:49.516Z,19.22
2022-09-11T15:44:25.013Z,19.34
2022-09-11T15:46:53.800Z,19.39
2022-09-11T15:49:24.353Z,18.92
2022-09-11T15:51:52.135Z,19.32
2022-09-11T15:54:20.143Z,19.65
2022-09-11T15:56:47.545Z,19.78
2022-09-11T15:59:15.091Z,19.69
2022-09-11T16:01:43.395Z,19.98
2022-09-11T16:04:13.782Z,19.93
2022-09-11T16:06:43.447Z,19.85
2022-09-11T16:09:20.138Z,19.59
2022-09-11T16:11:47.689Z,19.62
2022-09-11T16:14:18.954Z,19.63
2022-09-11T16:16:46.683Z,19.48
2022-09-11T16:19:19.060Z,19.19
2022-09-11T16:21:47.142Z,19.32
2022-09-11T16:24:14.892Z,19.28
2022-09-11T16:26:44.636Z,19.33
2022-09-11T16:29:13.994Z,19.12
2022-09-11T16:31:41.821Z,18.65
2022-09-11T16:34:09.293Z,18.42
2022-09-11T16:36:37.304Z,18.48
2022-09-11T16:39:09.647Z,18.91
2022-09-11T16:41:37.652Z,18.87
2022-09-11T16:44:06.433Z,18.47
2022-09-11T16:46:33.815Z,18.60
2022-09-11T16:49:02.141Z,18.81
2022-09-11T16:51:30.005Z,18.66
2022-09-11T16:53:57.720Z,18.14
2022-09-11T16:56:25.881Z,18.02
2022-09-11T16:58:53.554Z,17.98
2022-09-11T17:01:22.833Z,18.01
2022-09-11T17:03:53.430Z,17.90
2022-09-11T17:06:22.288Z,17.99
2022-09-11T17:08:50.825Z,17.99
2022-09-11T17:11:20.230Z,17.74
2022-09-11T17:13:48.660Z,17.63
2022-09-11T17:16:19.026Z,17.55
2022-09-11T17:18:53.923Z,17.65
2022-09-11T17:21:22.850Z,17.56
2022-09-11T17:23:51.204Z,17.55
2022-09-11T17:26:18.805Z,17.58
2022-09-11T17:28:47.681Z,17.49
2022-09-11T17:31:16.616Z,17.42
2022-09-11T17:33:44.045Z,17.39
2022-09-11T17:36:14.927Z,17.25
2022-09-11T17:38:42.215Z,17.31
2022-09-11T17:41:09.839Z,17.24
2022-09-11T17:43:38.569Z,17.16
2022-09-11T17:46:11.836Z,17.15
2022-09-11T17:48:39.828Z,17.16
2022-09-11T17:51:12.793Z,17.06
2022-09-11T17:53:41.602Z,17.17
2022-09-11T17:56:11.661Z,17.08
2022-09-11T17:58:39.055Z,17.02
2022-09-11T18:01:06.955Z,17.05
2022-09-11T18:03:35.379Z,16.98
2022-09-11T18:06:04.403Z,17.05
2022-09-11T18:08:36.680Z,16.97
2022-09-11T18:11:07.541Z,16.92
2022-09-11T18:13:36.313Z,16.97
2022-09-11T18:16:05.703Z,16.98
2022-09-11T18:18:35.926Z,16.95
2022-09-11T18:21:05.257Z,16.82
2022-09-11T18:23:32.685Z,16.98
2022-09-11T18:25:59.927Z,16.86
2022-09-11T18:28:27.504Z,16.82
2022-09-11T18:31:01.068Z,16.93
2022-09-11T18:33:29.049Z,16.92
2022-09-11T18:35:56.789Z,16.90
2022-09-11T18:38:31.004Z,16.86
2022-09-11T18:41:01.035Z,16.79
2022-09-11T18:43:28.452Z,16.81
2022-09-11T18:45:55.715Z,16.81
2022-09-11T18:48:23.231Z,16.77
2022-09-11T18:50:50.456Z,16.72
2022-09-11T18:53:17.808Z,16.81
2022-09-11T18:55:45.403Z,16.82
2022-09-11T18:58:15.911Z,17.10
2022-09-11T19:00:43.243Z,17.23
2022-09-11T19:03:11.153Z,16.74
2022-09-11T19:05:38.361Z,16.75
2022-09-11T19:08:05.569Z,17.37
2022-09-11T19:10:33.109Z,16.99
2022-09-11T19:13:00.325Z,16.79
2022-09-11T19:15:27.566Z,16.63
2022-09-11T19:17:55.242Z,16.54
2022-09-11T19:20:22.655Z,16.52
2022-09-11T19:22:49.863Z,16.48
2022-09-11T19:25:17.669Z,16.38
2022-09-11T19:27:44.886Z,16.39
2022-09-11T19:30:12.477Z,16.32
2022-09-11T19:32:40.190Z,16.25
2022-09-11T19:35:07.411Z,16.17
2022-09-11T19:37:35.537Z,16.11
2022-09-11T19:40:03.994Z,16.07
2022-09-11T19:42:31.598Z,16.07
2022-09-11T19:45:00.324Z,16.00
2022-09-11T19:47:28.447Z,16.06
2022-09-11T19:49:56.007Z,16.07
2022-09-11T19:52:23.350Z,15.99
2022-09-11T19:54:51.095Z,16.34
2022-09-11T19:57:18.684Z,16.57
2022-09-11T19:59:49.069Z,16.49
2022-09-11T20:02:18.946Z,16.55
2022-09-11T20:04:46.712Z,16.21
2022-09-11T20:07:13.939Z,16.33
2022-09-11T20:09:41.189Z,15.86
2022-09-11T20:12:08.702Z,16.35
2022-09-11T20:14:39.389Z,16.47
2022-09-11T20:17:09.452Z,16.32
2022-09-11T20:19:37.416Z,16.29
2022-09-11T20:22:04.970Z,16.20
2022-09-11T20:24:32.878Z,16.26
2022-09-11T20:27:00.575Z,16.19
2022-09-11T20:29:31.592Z,16.22
2022-09-11T20:32:00.585Z,16.04
2022-09-11T20:34:28.156Z,16.03
2022-09-11T20:36:55.663Z,16.04
2022-09-11T20:39:23.948Z,15.91
2022-09-11T20:41:51.458Z,15.89
2022-09-11T20:44:18.844Z,15.66
2022-09-11T20:46:46.382Z,15.60
2022-09-11T20:49:16.660Z,15.49
2022-09-11T20:51:44.188Z,15.46
2022-09-11T20:54:14.975Z,15.34
2022-09-11T20:56:42.435Z,15.40
2022-09-11T20:59:09.996Z,15.35
2022-09-11T21:01:37.880Z,15.33
2022-09-11T21:04:05.511Z,15.32
2022-09-11T21:06:34.574Z,15.43
2022-09-11T21:09:08.009Z,15.52
2022-09-11T21:11:40.068Z,15.40
2022-09-11T21:14:07.871Z,15.24
2022-09-11T21:16:35.506Z,15.31
2022-09-11T21:19:04.299Z,15.68
2022-09-11T21:21:33.134Z,15.59
2022-09-11T21:24:02.597Z,15.57
2022-09-11T21:26:30.734Z,15.43
2022-09-11T21:28:59.926Z,15.48
2022-09-11T21:31:29.993Z,15.59
2022-09-11T21:33:57.895Z,15.43
2022-09-11T21:36:25.490Z,14.96
2022-09-11T21:38:52.933Z,15.07
2022-09-11T21:41:20.697Z,14.93
2022-09-11T21:43:50.538Z,14.97
2022-09-11T21:46:17.984Z,14.96
2022-09-11T21:48:45.627Z,14.91
2022-09-11T21:51:15.422Z,14.76
2022-09-11T21:53:46.427Z,14.81
2022-09-11T21:56:22.621Z,14.67
2022-09-11T21:58:49.998Z,14.65
2022-09-11T22:01:18.964Z,14.64
2022-09-11T22:03:46.867Z,14.60
2022-09-11T22:06:14.434Z,14.59
2022-09-11T22:08:44.713Z,14.29
2022-09-11T22:11:12.579Z,14.29
2022-09-11T22:13:40.173Z,14.47
2022-09-11T22:16:10.505Z,14.37
2022-09-11T22:18:39.074Z,14.26
2022-09-11T22:21:09.855Z,14.26
2022-09-11T22:23:37.100Z,14.72
2022-09-11T22:26:25.230Z,14.19
2022-09-11T22:28:58.829Z,14.56
2022-09-11T22:31:27.292Z,14.91
2022-09-11T22:33:55.196Z,14.61
2022-09-11T22:36:25.527Z,14.14
2022-09-11T22:38:53.807Z,14.23
2022-09-11T22:41:21.408Z,14.21
2022-09-11T22:43:48.751Z,14.07
2022-09-11T22:46:20.453Z,14.13
2022-09-11T22:48:48.413Z,14.68
2022-09-11T22:51:16.196Z,14.29
2022-09-11T22:53:43.880Z,14.92
2022-09-11T22:56:11.287Z,14.91
2022-09-11T22:58:39.251Z,14.88
2022-09-11T23:01:08.355Z,14.95
2022-09-11T23:03:36.030Z,14.63
2022-09-11T23:06:04.424Z,14.78
2022-09-11T23:08:38.914Z,14.17
2022-09-11T23:11:07.068Z,14.25
2022-09-11T23:13:34.399Z,13.89
2022-09-11T23:16:17.385Z,13.85
2022-09-11T23:18:48.634Z,13.90
2022-09-11T23:21:16.057Z,13.93
2022-09-11T23:23:43.306Z,13.86
2022-09-11T23:26:12.979Z,13.73
2022-09-11T23:28:41.017Z,13.74
2022-09-11T23:31:19.500Z,13.74
2022-09-11T23:33:53.396Z,13.67
2022-09-11T23:36:20.912Z,14.55
2022-09-11T23:38:49.245Z,14.58
2022-09-11T23:41:20.508Z,14.60
2022-09-11T23:43:48.333Z,14.00
2022-09-11T23:46:16.702Z,13.87
2022-09-11T23:48:44.621Z,13.80
2022-09-11T23:51:12.303Z,13.78
2022-09-11T23:53:43.613Z,13.77
2022-09-11T23:56:12.181Z,13.90
2022-09-11T23:58:45.783Z,13.96
